Clermont County, Batavia, OH

7:18 PM EST on December 09, 2019 (GMT -0500)
Clermont County, Batavia

Weather History for KI69 - September, 2019

Change the Weather History Date:

Wednesday, September 4, 2019

  Actual Average (WUND) Record (WUND)
Temperature  
Mean Temperature 75 °F -  
Max Temperature 84 °F - - (-1)
Min Temperature 66 °F - - (-1)
Cooling Degree Days 10    
Growing Degree Days 25 (Base 50)    
Moisture  
Dew Point 65 °F    
Average Humidity 70    
Maximum Humidity 89    
Minimum Humidity 42    
Precipitation  
Precipitation 0.05 in - - ()
Sea Level Pressure  
Sea Level Pressure 30.03 in    
Wind  
Wind Speed 5 mph (NW)    
Max Wind Speed 10 mph    
Max Gust Speed 18 mph    
Visibility 10 miles    
Events      
Averages and records for this station are not official NWS values.
T = Trace of Precipitation, MM = Missing Value Source: NWS Daily Summary

Daily Weather History Graph

Daily Weather History Graph

Search for Another Location

Airport or City:

Astronomy

Sep. 04, 2019 Rise Set
Actual Time 7:08 AM EDT 8:03 PM EDT
Civil Twilight 6:40 AM EDT 8:30 PM EDT
Nautical Twilight 6:08 AM EDT 9:02 PM EDT
Astronomical Twilight 5:34 AM EDT 9:35 PM EDT
Moon 1:05 PM EDT (9/4) 11:39 PM EDT (9/4)
Length of Visible Light 13h 49m
Length of Day
12h 54m
Waxing Crescent, 34% of the Moon is Illuminated
Sep 4
Waxing Crescent
Sep 5
First Quarter
Sep 14
Full
Sep 21
Last Quarter
Sep 28
New

Hourly Weather History & Observations

Time (EDT) Temp. Heat Index Dew Point Humidity Pressure Visibility Wind Dir Wind Speed Gust Speed Precip Events Conditions
12:17 AM 73.6 °F - 66.4 °F 78% 29.98 in 10.0 mi Calm Calm - N/A   Clear
12:35 AM 73.9 °F - 66.6 °F 78% 29.98 in 10.0 mi Calm Calm - N/A   Clear
12:55 AM 73.4 °F - 66.6 °F 79% 29.98 in 10.0 mi Calm Calm - N/A   Clear
1:15 AM 70.9 °F - 66.6 °F 86% 29.99 in 10.0 mi Calm Calm - N/A   Clear
1:38 AM 72.1 °F - 67.1 °F 84% 29.99 in 10.0 mi WSW 3.5 mph - N/A   Clear
1:57 AM 72.5 °F - 67.1 °F 83% 29.99 in 10.0 mi SW 4.6 mph - N/A   Clear
2:15 AM 72.5 °F - 67.3 °F 84% 29.99 in 10.0 mi SW 4.6 mph - N/A   Clear
2:35 AM 72.9 °F - 67.6 °F 84% 29.99 in 10.0 mi Calm Calm - N/A   Mostly Cloudy
2:55 AM 73.2 °F - 68.0 °F 84% 29.99 in 10.0 mi WSW 4.6 mph - 0.01 in   Overcast
3:18 AM 73.2 °F - 67.8 °F 83% 29.98 in 10.0 mi SW 5.8 mph - N/A   Mostly Cloudy
3:36 AM 72.5 °F - 67.6 °F 85% 29.98 in 10.0 mi WSW 6.9 mph - N/A   Clear
3:55 AM 73.0 °F - 67.6 °F 83% 29.98 in 10.0 mi SW 6.9 mph - N/A   Clear
4:15 AM 73.2 °F - 68.0 °F 84% 29.98 in 10.0 mi WSW 6.9 mph - N/A   Scattered Clouds
4:35 AM 72.9 °F - 67.6 °F 84% 29.97 in 10.0 mi WSW 6.9 mph - N/A   Mostly Cloudy
4:58 AM 72.7 °F - 68.0 °F 85% 29.97 in 10.0 mi SW 5.8 mph - N/A   Mostly Cloudy
5:16 AM 72.9 °F - 67.8 °F 84% 29.98 in 10.0 mi WSW 5.8 mph - N/A   Mostly Cloudy
5:35 AM 72.9 °F - 68.0 °F 85% 29.98 in 10.0 mi WSW 5.8 mph - N/A   Mostly Cloudy
5:55 AM 72.7 °F - 68.0 °F 85% 29.99 in 10.0 mi WSW 5.8 mph - N/A   Mostly Cloudy
6:15 AM 73.0 °F - 68.4 °F 85% 29.99 in 10.0 mi SW 5.8 mph - N/A   Overcast
6:38 AM 72.7 °F - 68.4 °F 86% 30.00 in 10.0 mi SW 5.8 mph - 0.01 in   Mostly Cloudy
6:56 AM 72.5 °F - 68.4 °F 87% 30.01 in 10.0 mi SW 5.8 mph - 0.01 in   Scattered Clouds
7:15 AM 72.0 °F - 68.4 °F 88% 30.01 in 10.0 mi WSW 5.8 mph - N/A   Clear
7:55 AM 72.1 °F - 68.9 °F 89% 30.02 in 10.0 mi WSW 5.8 mph - N/A   Clear
8:18 AM 73.4 °F - 69.3 °F 87% 30.03 in 10.0 mi West 5.8 mph - N/A   Clear
8:36 AM 74.3 °F - 69.8 °F 86% 30.03 in 10.0 mi West 5.8 mph - N/A   Clear
8:55 AM 75.2 °F - 70.3 °F 85% 30.04 in 10.0 mi West 4.6 mph - N/A   Clear
9:15 AM 75.9 °F - 70.5 °F 83% 30.04 in 10.0 mi NW 9.2 mph - N/A   Clear
9:40 AM 76.5 °F - 70.9 °F 83% 30.04 in 10.0 mi NW 8.1 mph - N/A   Scattered Clouds
9:58 AM 77.0 °F - 70.7 °F 81% 30.05 in 10.0 mi WNW 6.9 mph - N/A   Clear
10:16 AM 77.5 °F - 70.7 °F 79% 30.05 in 10.0 mi NW 5.8 mph - N/A   Clear
10:35 AM 78.8 °F - 70.0 °F 74% 30.05 in 10.0 mi NW 4.6 mph - N/A   Mostly Cloudy
10:55 AM 79.7 °F - 68.9 °F 69% 30.05 in 10.0 mi NW 4.6 mph - 0.01 in   Scattered Clouds
11:20 AM 79.9 °F - 68.7 °F 69% 30.05 in 10.0 mi West 5.8 mph - N/A   Clear
11:38 AM 80.4 °F 83.4 °F 68.9 °F 68% 30.05 in 10.0 mi West 4.6 mph - N/A   Scattered Clouds
11:56 AM 81.1 °F 84.0 °F 68.5 °F 65% 30.05 in 10.0 mi NW 9.2 mph - N/A   Clear
12:15 PM 81.0 °F 83.6 °F 67.8 °F 64% 30.05 in 10.0 mi NW 8.1 mph - N/A   Clear
12:35 PM 81.7 °F 84.7 °F 68.4 °F 64% 30.04 in 10.0 mi NW 6.9 mph - N/A   Clear
12:59 PM 82.4 °F 85.4 °F 68.0 °F 62% 30.05 in 10.0 mi NW 6.9 mph - N/A   Mostly Cloudy
1:18 PM 81.3 °F 83.6 °F 66.7 °F 61% 30.05 in 10.0 mi NW 3.5 mph 18.4 mph N/A   Mostly Cloudy
1:36 PM 82.9 °F 84.8 °F 65.3 °F 55% 30.05 in 10.0 mi NW 8.1 mph - 0.01 in   Scattered Clouds
1:55 PM 83.1 °F 84.4 °F 64.0 °F 52% 30.05 in 10.0 mi WNW 5.8 mph - 0.01 in   Clear
2:15 PM 83.5 °F 84.3 °F 62.2 °F 49% 30.05 in 10.0 mi WNW 8.1 mph - N/A   Clear
2:39 PM 83.5 °F 83.9 °F 61.3 °F 47% 30.05 in 10.0 mi West 4.6 mph 10.4 mph N/A   Clear
2:57 PM 83.5 °F 83.6 °F 60.3 °F 45% 30.04 in 10.0 mi North 6.9 mph - N/A   Clear
3:16 PM 84.2 °F 85.0 °F 62.4 °F 48% 30.04 in 10.0 mi NNW 6.9 mph - N/A   Clear
3:35 PM 84.0 °F 84.9 °F 62.8 °F 49% 30.04 in 10.0 mi NNW 10.4 mph - N/A   Clear
3:55 PM 83.8 °F 84.3 °F 61.5 °F 47% 30.03 in 10.0 mi NW 5.8 mph - N/A   Clear
4:19 PM 84.4 °F 84.8 °F 61.7 °F 46% 30.03 in 10.0 mi NNW 8.1 mph - N/A   Clear
4:37 PM 84.4 °F 84.4 °F 60.3 °F 44% 30.03 in 10.0 mi NNW 10.4 mph - N/A   Clear
4:56 PM 84.2 °F 83.8 °F 58.8 °F 42% 30.03 in 10.0 mi North 6.9 mph 16.1 mph N/A   Clear
5:15 PM 83.5 °F 83.1 °F 58.1 °F 42% 30.03 in 10.0 mi NNW 8.1 mph - N/A   Clear
5:35 PM 83.1 °F 83.0 °F 59.4 °F 44% 30.03 in 10.0 mi North 8.1 mph - 0.01 in   Clear
5:59 PM 82.2 °F 82.7 °F 61.0 °F 48% 30.03 in 10.0 mi North 10.4 mph - 0.01 in   Clear
6:17 PM 81.7 °F 82.4 °F 61.5 °F 50% 30.04 in 10.0 mi North 9.2 mph - N/A   Clear
6:35 PM 80.8 °F 81.8 °F 61.9 °F 52% 30.04 in 10.0 mi NNE 9.2 mph - N/A   Clear
6:56 PM 79.9 °F - 61.9 °F 54% 30.04 in 10.0 mi NNW 8.1 mph - N/A   Clear
7:15 PM 79.3 °F - 61.9 °F 55% 30.05 in 10.0 mi North 5.8 mph - N/A   Clear
7:39 PM 77.4 °F - 61.9 °F 59% 30.05 in 10.0 mi North 6.9 mph - N/A   Clear
7:57 PM 76.3 °F - 61.5 °F 60% 30.06 in 10.0 mi North 5.8 mph - N/A   Clear
8:15 PM 75.4 °F - 61.5 °F 62% 30.06 in 10.0 mi North 5.8 mph - N/A   Clear
8:35 PM 74.3 °F - 61.2 °F 63% 30.06 in 10.0 mi North 5.8 mph - N/A   Clear
8:55 PM 73.6 °F - 61.2 °F 65% 30.07 in 10.0 mi North 5.8 mph - N/A   Clear
9:19 PM 72.7 °F - 61.0 °F 67% 30.07 in 10.0 mi North 5.8 mph - N/A   Clear
9:37 PM 72.1 °F - 60.8 °F 67% 30.08 in 10.0 mi North 5.8 mph - N/A   Clear
9:55 PM 71.1 °F - 61.0 °F 70% 30.08 in 10.0 mi North 5.8 mph - N/A   Clear
10:15 PM 69.8 °F - 61.0 °F 73% 30.08 in 10.0 mi NNE 5.8 mph - N/A   Clear
10:35 PM 68.9 °F - 60.8 °F 75% 30.09 in 10.0 mi NNE 5.8 mph - N/A   Clear
10:59 PM 67.6 °F - 60.8 °F 79% 30.09 in 10.0 mi NNE 3.5 mph - N/A   Clear
11:17 PM 67.1 °F - 60.3 °F 79% 30.09 in 10.0 mi NNE 5.8 mph - N/A   Clear
11:35 PM 66.6 °F - 60.1 °F 80% 30.09 in 10.0 mi NNE 3.5 mph - N/A   Clear
11:55 PM 66.6 °F - 60.1 °F 80% 30.09 in 10.0 mi Calm Calm - N/A   Clear